Terminal Aerodrome Forecast
Issued by NWS Pendleton, OR

Home | Current Version | Previous Version | Text Only | Print | Product List | Glossary On
Versions: 1 2 3 4 5 6 7 8 9 10 11 12 13 14
000
FTUS46 KPDT 212103 AAA
TAFPDT
TAF AMD
KPDT 212103Z 2121/2218 15011KT P6SM -RA OVC040
      TEMPO 2121/2201 4SM RA BR BKN025 OVC035
     FM220200 20023G30KT P6SM VCSH SCT050 BKN090
     FM221000 23028G37KT P6SM -SHRA OVC040
     FM221600 20021G32KT P6SM VCSH SCT050 OVC070=

USA.gov is the U.S. government's official web portal to all federal, state and local government web resources and services.